sensor_id;sensor_type;location;lat;lon;timestamp;P1;durP1;ratioP1;P2;durP2;ratioP2
71753;SDS011;59593;51.716;7.016;2023-04-25T00:02:24;15.00;;;6.83;;
71753;SDS011;59593;51.716;7.016;2023-04-25T00:04:50;16.13;;;7.03;;
71753;SDS011;59593;51.716;7.016;2023-04-25T00:07:16;18.60;;;7.40;;
71753;SDS011;59593;51.716;7.016;2023-04-25T00:09:42;15.70;;;7.10;;
71753;SDS011;59593;51.716;7.016;2023-04-25T00:12:08;19.17;;;7.23;;
71753;SDS011;59593;51.716;7.016;2023-04-25T00:14:34;14.73;;;6.60;;
71753;SDS011;59593;51.716;7.016;2023-04-25T00:17:00;15.63;;;6.77;;
71753;SDS011;59593;51.716;7.016;2023-04-25T00:19:26;16.03;;;7.07;;
71753;SDS011;59593;51.716;7.016;2023-04-25T00:21:53;17.47;;;6.70;;
71753;SDS011;59593;51.716;7.016;2023-04-25T00:24:19;15.07;;;6.73;;
71753;SDS011;59593;51.716;7.016;2023-04-25T00:26:45;12.93;;;6.50;;
71753;SDS011;59593;51.716;7.016;2023-04-25T00:29:11;13.00;;;6.67;;
71753;SDS011;59593;51.716;7.016;2023-04-25T00:31:36;17.70;;;6.43;;
71753;SDS011;59593;51.716;7.016;2023-04-25T00:34:02;13.27;;;6.33;;
71753;SDS011;59593;51.716;7.016;2023-04-25T00:36:27;14.57;;;7.20;;
71753;SDS011;59593;51.716;7.016;2023-04-25T00:38:53;14.73;;;6.80;;
71753;SDS011;59593;51.716;7.016;2023-04-25T00:41:20;15.67;;;7.03;;
71753;SDS011;59593;51.716;7.016;2023-04-25T00:43:46;14.43;;;6.77;;
71753;SDS011;59593;51.716;7.016;2023-04-25T00:46:13;13.27;;;6.80;;
71753;SDS011;59593;51.716;7.016;2023-04-25T00:48:38;14.33;;;6.33;;
71753;SDS011;59593;51.716;7.016;2023-04-25T00:51:04;13.43;;;6.17;;
71753;SDS011;59593;51.716;7.016;2023-04-25T00:53:30;15.23;;;6.60;;
71753;SDS011;59593;51.716;7.016;2023-04-25T00:55:59;10.87;;;5.57;;
71753;SDS011;59593;51.716;7.016;2023-04-25T00:58:24;12.73;;;6.00;;
71753;SDS011;59593;51.716;7.016;2023-04-25T01:00:51;12.50;;;6.20;;
71753;SDS011;59593;51.716;7.016;2023-04-25T01:03:17;16.40;;;6.20;;
71753;SDS011;59593;51.716;7.016;2023-04-25T01:05:45;12.30;;;5.50;;
71753;SDS011;59593;51.716;7.016;2023-04-25T01:08:12;10.27;;;5.13;;
71753;SDS011;59593;51.716;7.016;2023-04-25T01:10:38;13.37;;;5.23;;
71753;SDS011;59593;51.716;7.016;2023-04-25T01:13:03;12.50;;;5.10;;
71753;SDS011;59593;51.716;7.016;2023-04-25T01:15:29;11.80;;;4.90;;
71753;SDS011;59593;51.716;7.016;2023-04-25T01:17:55;9.70;;;5.33;;
71753;SDS011;59593;51.716;7.016;2023-04-25T01:20:23;11.87;;;5.67;;
71753;SDS011;59593;51.716;7.016;2023-04-25T01:22:50;12.30;;;6.00;;
71753;SDS011;59593;51.716;7.016;2023-04-25T01:25:17;10.23;;;5.13;;
71753;SDS011;59593;51.716;7.016;2023-04-25T01:27:43;13.17;;;5.70;;
71753;SDS011;59593;51.716;7.016;2023-04-25T01:30:09;10.63;;;5.03;;
71753;SDS011;59593;51.716;7.016;2023-04-25T01:32:35;10.57;;;5.23;;
71753;SDS011;59593;51.716;7.016;2023-04-25T01:35:04;12.40;;;5.17;;
71753;SDS011;59593;51.716;7.016;2023-04-25T01:37:35;9.97;;;4.60;;
71753;SDS011;59593;51.716;7.016;2023-04-25T01:40:05;12.80;;;4.80;;
71753;SDS011;59593;51.716;7.016;2023-04-25T01:42:32;16.37;;;5.23;;
71753;SDS011;59593;51.716;7.016;2023-04-25T01:44:59;10.30;;;4.80;;
71753;SDS011;59593;51.716;7.016;2023-04-25T01:47:24;10.83;;;4.63;;
71753;SDS011;59593;51.716;7.016;2023-04-25T01:49:50;11.87;;;4.90;;
71753;SDS011;59593;51.716;7.016;2023-04-25T01:52:16;10.20;;;4.67;;
71753;SDS011;59593;51.716;7.016;2023-04-25T01:54:41;8.90;;;4.60;;
71753;SDS011;59593;51.716;7.016;2023-04-25T01:57:10;8.43;;;4.27;;
71753;SDS011;59593;51.716;7.016;2023-04-25T01:59:36;7.47;;;4.53;;
71753;SDS011;59593;51.716;7.016;2023-04-25T02:02:02;10.90;;;4.70;;
71753;SDS011;59593;51.716;7.016;2023-04-25T02:04:29;10.77;;;4.70;;
71753;SDS011;59593;51.716;7.016;2023-04-25T02:06:55;10.70;;;4.80;;
71753;SDS011;59593;51.716;7.016;2023-04-25T02:09:21;9.73;;;5.33;;
71753;SDS011;59593;51.716;7.016;2023-04-25T02:11:46;8.47;;;4.40;;
71753;SDS011;59593;51.716;7.016;2023-04-25T02:14:12;12.10;;;4.63;;
71753;SDS011;59593;51.716;7.016;2023-04-25T02:16:38;11.63;;;4.90;;
71753;SDS011;59593;51.716;7.016;2023-04-25T02:19:04;12.63;;;4.90;;
71753;SDS011;59593;51.716;7.016;2023-04-25T02:21:30;10.80;;;4.90;;
71753;SDS011;59593;51.716;7.016;2023-04-25T02:23:56;14.77;;;6.00;;
71753;SDS011;59593;51.716;7.016;2023-04-25T02:26:22;11.90;;;5.50;;
71753;SDS011;59593;51.716;7.016;2023-04-25T02:28:49;10.93;;;5.07;;
71753;SDS011;59593;51.716;7.016;2023-04-25T02:31:15;8.70;;;4.87;;
71753;SDS011;59593;51.716;7.016;2023-04-25T02:33:40;11.00;;;4.70;;
71753;SDS011;59593;51.716;7.016;2023-04-25T02:36:06;12.30;;;5.00;;
71753;SDS011;59593;51.716;7.016;2023-04-25T02:38:32;12.97;;;4.87;;
71753;SDS011;59593;51.716;7.016;2023-04-25T02:40:59;13.30;;;5.33;;
71753;SDS011;59593;51.716;7.016;2023-04-25T02:43:25;11.43;;;5.17;;
71753;SDS011;59593;51.716;7.016;2023-04-25T02:45:50;12.17;;;5.27;;
71753;SDS011;59593;51.716;7.016;2023-04-25T02:48:16;10.80;;;5.33;;
71753;SDS011;59593;51.716;7.016;2023-04-25T02:50:41;14.90;;;6.00;;
71753;SDS011;59593;51.716;7.016;2023-04-25T02:53:07;12.97;;;5.70;;
71753;SDS011;59593;51.716;7.016;2023-04-25T02:55:33;11.43;;;5.57;;
71753;SDS011;59593;51.716;7.016;2023-04-25T02:57:58;14.67;;;6.00;;
71753;SDS011;59593;51.716;7.016;2023-04-25T03:00:24;13.30;;;6.67;;
71753;SDS011;59593;51.716;7.016;2023-04-25T03:02:50;12.20;;;6.00;;
71753;SDS011;59593;51.716;7.016;2023-04-25T03:05:16;14.17;;;6.80;;
71753;SDS011;59593;51.716;7.016;2023-04-25T03:07:42;13.57;;;6.63;;
71753;SDS011;59593;51.716;7.016;2023-04-25T03:10:08;11.13;;;5.63;;
71753;SDS011;59593;51.716;7.016;2023-04-25T03:12:34;9.60;;;4.23;;
71753;SDS011;59593;51.716;7.016;2023-04-25T03:15:00;12.07;;;4.13;;
71753;SDS011;59593;51.716;7.016;2023-04-25T03:17:26;10.70;;;3.50;;
71753;SDS011;59593;51.716;7.016;2023-04-25T03:19:54;11.60;;;3.70;;
71753;SDS011;59593;51.716;7.016;2023-04-25T03:22:20;10.93;;;4.20;;
71753;SDS011;59593;51.716;7.016;2023-04-25T03:24:46;10.63;;;3.10;;
71753;SDS011;59593;51.716;7.016;2023-04-25T03:27:12;10.73;;;3.47;;
71753;SDS011;59593;51.716;7.016;2023-04-25T03:29:38;9.40;;;3.50;;
71753;SDS011;59593;51.716;7.016;2023-04-25T03:32:05;10.53;;;4.57;;
71753;SDS011;59593;51.716;7.016;2023-04-25T03:34:31;11.13;;;3.80;;
71753;SDS011;59593;51.716;7.016;2023-04-25T03:36:56;9.93;;;3.53;;
71753;SDS011;59593;51.716;7.016;2023-04-25T03:39:22;14.50;;;3.73;;
71753;SDS011;59593;51.716;7.016;2023-04-25T03:41:47;10.57;;;3.40;;
71753;SDS011;59593;51.716;7.016;2023-04-25T03:44:13;9.70;;;3.90;;
71753;SDS011;59593;51.716;7.016;2023-04-25T03:46:39;14.27;;;4.40;;
71753;SDS011;59593;51.716;7.016;2023-04-25T03:49:05;10.57;;;3.80;;
71753;SDS011;59593;51.716;7.016;2023-04-25T03:51:30;13.53;;;3.57;;
71753;SDS011;59593;51.716;7.016;2023-04-25T03:53:56;10.87;;;3.63;;
71753;SDS011;59593;51.716;7.016;2023-04-25T03:56:22;11.33;;;3.80;;
71753;SDS011;59593;51.716;7.016;2023-04-25T03:58:47;14.77;;;6.00;;
71753;SDS011;59593;51.716;7.016;2023-04-25T04:01:13;11.63;;;4.40;;
71753;SDS011;59593;51.716;7.016;2023-04-25T04:03:39;11.47;;;3.53;;
71753;SDS011;59593;51.716;7.016;2023-04-25T04:06:05;8.00;;;3.60;;
71753;SDS011;59593;51.716;7.016;2023-04-25T04:08:31;12.70;;;3.60;;
71753;SDS011;59593;51.716;7.016;2023-04-25T04:10:58;8.93;;;3.63;;
71753;SDS011;59593;51.716;7.016;2023-04-25T04:13:25;11.90;;;3.97;;
71753;SDS011;59593;51.716;7.016;2023-04-25T04:15:51;10.70;;;3.67;;
71753;SDS011;59593;51.716;7.016;2023-04-25T04:18:17;17.43;;;4.20;;
71753;SDS011;59593;51.716;7.016;2023-04-25T04:20:43;8.80;;;3.80;;
71753;SDS011;59593;51.716;7.016;2023-04-25T04:23:08;9.63;;;4.00;;
71753;SDS011;59593;51.716;7.016;2023-04-25T04:25:34;10.80;;;4.33;;
71753;SDS011;59593;51.716;7.016;2023-04-25T04:28:00;9.63;;;4.10;;
71753;SDS011;59593;51.716;7.016;2023-04-25T04:30:26;14.10;;;3.83;;
71753;SDS011;59593;51.716;7.016;2023-04-25T04:32:54;15.27;;;3.77;;
71753;SDS011;59593;51.716;7.016;2023-04-25T04:35:20;10.60;;;3.67;;
71753;SDS011;59593;51.716;7.016;2023-04-25T04:37:47;11.00;;;4.27;;
71753;SDS011;59593;51.716;7.016;2023-04-25T04:40:13;14.90;;;5.37;;
71753;SDS011;59593;51.716;7.016;2023-04-25T04:42:41;16.83;;;4.80;;
71753;SDS011;59593;51.716;7.016;2023-04-25T04:45:12;12.90;;;4.50;;
71753;SDS011;59593;51.716;7.016;2023-04-25T04:47:38;15.07;;;4.13;;
71753;SDS011;59593;51.716;7.016;2023-04-25T04:50:05;11.57;;;4.20;;
71753;SDS011;59593;51.716;7.016;2023-04-25T04:52:33;10.70;;;3.93;;
71753;SDS011;59593;51.716;7.016;2023-04-25T04:54:59;16.77;;;4.73;;
71753;SDS011;59593;51.716;7.016;2023-04-25T04:57:25;11.37;;;4.20;;
71753;SDS011;59593;51.716;7.016;2023-04-25T04:59:51;12.40;;;4.53;;
71753;SDS011;59593;51.716;7.016;2023-04-25T05:02:17;17.00;;;5.20;;
71753;SDS011;59593;51.716;7.016;2023-04-25T05:04:42;13.80;;;5.03;;
71753;SDS011;59593;51.716;7.016;2023-04-25T05:07:08;13.93;;;4.60;;
71753;SDS011;59593;51.716;7.016;2023-04-25T05:09:34;13.57;;;5.50;;
71753;SDS011;59593;51.716;7.016;2023-04-25T05:11:59;11.87;;;5.10;;
71753;SDS011;59593;51.716;7.016;2023-04-25T05:14:26;12.90;;;5.13;;
71753;SDS011;59593;51.716;7.016;2023-04-25T05:16:51;11.77;;;5.17;;
71753;SDS011;59593;51.716;7.016;2023-04-25T05:19:17;15.73;;;5.47;;
71753;SDS011;59593;51.716;7.016;2023-04-25T05:21:43;18.20;;;7.13;;
71753;SDS011;59593;51.716;7.016;2023-04-25T05:24:08;14.90;;;8.03;;
71753;SDS011;59593;51.716;7.016;2023-04-25T05:26:34;20.33;;;8.63;;
71753;SDS011;59593;51.716;7.016;2023-04-25T05:29:00;17.90;;;9.63;;
71753;SDS011;59593;51.716;7.016;2023-04-25T05:31:25;14.47;;;10.27;;
71753;SDS011;59593;51.716;7.016;2023-04-25T05:33:51;17.03;;;11.07;;
71753;SDS011;59593;51.716;7.016;2023-04-25T05:36:18;18.17;;;9.70;;
71753;SDS011;59593;51.716;7.016;2023-04-25T05:38:44;12.70;;;7.97;;
71753;SDS011;59593;51.716;7.016;2023-04-25T05:41:10;15.93;;;8.70;;
71753;SDS011;59593;51.716;7.016;2023-04-25T05:43:36;22.87;;;9.17;;
71753;SDS011;59593;51.716;7.016;2023-04-25T05:46:01;20.23;;;9.60;;
71753;SDS011;59593;51.716;7.016;2023-04-25T05:48:28;16.43;;;8.83;;
71753;SDS011;59593;51.716;7.016;2023-04-25T05:50:54;15.30;;;7.90;;
71753;SDS011;59593;51.716;7.016;2023-04-25T05:53:19;18.13;;;7.53;;
71753;SDS011;59593;51.716;7.016;2023-04-25T05:55:46;16.53;;;7.43;;
71753;SDS011;59593;51.716;7.016;2023-04-25T05:58:11;17.87;;;7.53;;
71753;SDS011;59593;51.716;7.016;2023-04-25T06:00:37;19.43;;;7.87;;
71753;SDS011;59593;51.716;7.016;2023-04-25T06:03:03;19.97;;;8.07;;
71753;SDS011;59593;51.716;7.016;2023-04-25T06:05:29;17.67;;;6.70;;
71753;SDS011;59593;51.716;7.016;2023-04-25T06:07:54;13.93;;;6.27;;
71753;SDS011;59593;51.716;7.016;2023-04-25T06:10:20;15.50;;;6.67;;
71753;SDS011;59593;51.716;7.016;2023-04-25T06:12:47;16.60;;;7.20;;
71753;SDS011;59593;51.716;7.016;2023-04-25T06:15:18;18.03;;;6.80;;
71753;SDS011;59593;51.716;7.016;2023-04-25T06:17:44;13.97;;;5.97;;
71753;SDS011;59593;51.716;7.016;2023-04-25T06:20:09;23.10;;;7.20;;
71753;SDS011;59593;51.716;7.016;2023-04-25T06:22:35;21.70;;;6.97;;
71753;SDS011;59593;51.716;7.016;2023-04-25T06:25:01;17.30;;;6.83;;
71753;SDS011;59593;51.716;7.016;2023-04-25T06:27:28;17.87;;;6.80;;
71753;SDS011;59593;51.716;7.016;2023-04-25T06:29:54;14.77;;;5.77;;
71753;SDS011;59593;51.716;7.016;2023-04-25T06:32:20;17.37;;;6.00;;
71753;SDS011;59593;51.716;7.016;2023-04-25T06:34:45;20.20;;;6.87;;
71753;SDS011;59593;51.716;7.016;2023-04-25T06:37:11;16.17;;;6.53;;
71753;SDS011;59593;51.716;7.016;2023-04-25T06:39:36;13.43;;;6.73;;
71753;SDS011;59593;51.716;7.016;2023-04-25T06:42:02;18.93;;;6.10;;
71753;SDS011;59593;51.716;7.016;2023-04-25T06:44:27;17.63;;;6.07;;
71753;SDS011;59593;51.716;7.016;2023-04-25T06:46:54;16.33;;;5.47;;
71753;SDS011;59593;51.716;7.016;2023-04-25T06:49:20;16.03;;;5.43;;
71753;SDS011;59593;51.716;7.016;2023-04-25T06:51:45;14.30;;;5.33;;
71753;SDS011;59593;51.716;7.016;2023-04-25T06:54:11;18.23;;;5.37;;
71753;SDS011;59593;51.716;7.016;2023-04-25T06:56:36;18.53;;;5.37;;
71753;SDS011;59593;51.716;7.016;2023-04-25T06:59:02;14.07;;;4.93;;
71753;SDS011;59593;51.716;7.016;2023-04-25T07:01:28;15.27;;;4.60;;
71753;SDS011;59593;51.716;7.016;2023-04-25T07:03:53;16.87;;;4.97;;
71753;SDS011;59593;51.716;7.016;2023-04-25T07:06:19;9.13;;;4.17;;
71753;SDS011;59593;51.716;7.016;2023-04-25T07:08:44;15.00;;;4.30;;
71753;SDS011;59593;51.716;7.016;2023-04-25T07:11:10;12.93;;;3.80;;
71753;SDS011;59593;51.716;7.016;2023-04-25T07:13:36;13.13;;;3.67;;
71753;SDS011;59593;51.716;7.016;2023-04-25T13:43:03;3.60;;;1.40;;
71753;SDS011;59593;51.716;7.016;2023-04-25T13:45:28;3.43;;;1.17;;
71753;SDS011;59593;51.716;7.016;2023-04-25T13:47:55;2.50;;;1.20;;
71753;SDS011;59593;51.716;7.016;2023-04-25T13:50:21;2.40;;;0.97;;
71753;SDS011;59593;51.716;7.016;2023-04-25T13:52:46;4.13;;;1.10;;
71753;SDS011;59593;51.716;7.016;2023-04-25T13:55:12;3.27;;;1.10;;
71753;SDS011;59593;51.716;7.016;2023-04-25T13:57:38;5.47;;;1.30;;
71753;SDS011;59593;51.716;7.016;2023-04-25T14:00:04;2.50;;;1.23;;
71753;SDS011;59593;51.716;7.016;2023-04-25T14:02:36;3.30;;;1.37;;
71753;SDS011;59593;51.716;7.016;2023-04-25T14:05:02;4.40;;;1.10;;
71753;SDS011;59593;51.716;7.016;2023-04-25T14:07:29;5.10;;;1.40;;
71753;SDS011;59593;51.716;7.016;2023-04-25T14:09:55;5.17;;;1.50;;
71753;SDS011;59593;51.716;7.016;2023-04-25T14:12:22;4.63;;;1.53;;
71753;SDS011;59593;51.716;7.016;2023-04-25T14:14:48;4.67;;;1.33;;
71753;SDS011;59593;51.716;7.016;2023-04-25T14:17:17;4.17;;;1.27;;
71753;SDS011;59593;51.716;7.016;2023-04-25T14:19:43;3.33;;;1.10;;
71753;SDS011;59593;51.716;7.016;2023-04-25T14:22:12;3.27;;;1.30;;
71753;SDS011;59593;51.716;7.016;2023-04-25T14:24:39;4.60;;;1.50;;
71753;SDS011;59593;51.716;7.016;2023-04-25T14:27:05;5.57;;;1.40;;
71753;SDS011;59593;51.716;7.016;2023-04-25T14:29:30;2.83;;;1.30;;
71753;SDS011;59593;51.716;7.016;2023-04-25T14:31:56;4.53;;;1.37;;
71753;SDS011;59593;51.716;7.016;2023-04-25T14:34:23;5.77;;;1.40;;
71753;SDS011;59593;51.716;7.016;2023-04-25T14:36:50;5.13;;;1.33;;
71753;SDS011;59593;51.716;7.016;2023-04-25T14:39:16;3.83;;;1.37;;
71753;SDS011;59593;51.716;7.016;2023-04-25T14:41:42;5.27;;;1.70;;
71753;SDS011;59593;51.716;7.016;2023-04-25T14:44:07;4.83;;;1.30;;
71753;SDS011;59593;51.716;7.016;2023-04-25T14:46:33;4.00;;;1.30;;
71753;SDS011;59593;51.716;7.016;2023-04-25T14:48:59;7.77;;;3.20;;
71753;SDS011;59593;51.716;7.016;2023-04-25T14:51:25;10.43;;;5.00;;
71753;SDS011;59593;51.716;7.016;2023-04-25T14:53:51;6.70;;;2.60;;
71753;SDS011;59593;51.716;7.016;2023-04-25T14:56:17;8.03;;;3.33;;
71753;SDS011;59593;51.716;7.016;2023-04-25T14:58:43;5.93;;;2.20;;
71753;SDS011;59593;51.716;7.016;2023-04-25T15:01:10;5.13;;;1.53;;
71753;SDS011;59593;51.716;7.016;2023-04-25T15:03:36;6.23;;;1.50;;
71753;SDS011;59593;51.716;7.016;2023-04-25T15:06:02;3.53;;;1.23;;
71753;SDS011;59593;51.716;7.016;2023-04-25T15:08:27;3.47;;;1.40;;
71753;SDS011;59593;51.716;7.016;2023-04-25T15:10:53;3.80;;;1.13;;
71753;SDS011;59593;51.716;7.016;2023-04-25T15:13:18;6.43;;;1.60;;
71753;SDS011;59593;51.716;7.016;2023-04-25T15:15:44;5.93;;;1.57;;
71753;SDS011;59593;51.716;7.016;2023-04-25T15:18:15;4.40;;;1.60;;
71753;SDS011;59593;51.716;7.016;2023-04-25T15:20:51;4.33;;;1.57;;
71753;SDS011;59593;51.716;7.016;2023-04-25T15:23:20;3.93;;;1.50;;
71753;SDS011;59593;51.716;7.016;2023-04-25T15:25:46;3.43;;;1.30;;
71753;SDS011;59593;51.716;7.016;2023-04-25T15:28:12;5.50;;;1.40;;
71753;SDS011;59593;51.716;7.016;2023-04-25T15:30:40;3.97;;;1.60;;
71753;SDS011;59593;51.716;7.016;2023-04-25T15:33:05;4.87;;;1.30;;
71753;SDS011;59593;51.716;7.016;2023-04-25T15:35:31;2.53;;;1.17;;
71753;SDS011;59593;51.716;7.016;2023-04-25T15:37:56;5.03;;;1.57;;
71753;SDS011;59593;51.716;7.016;2023-04-25T15:40:22;4.33;;;1.30;;
71753;SDS011;59593;51.716;7.016;2023-04-25T15:42:48;10.40;;;1.70;;
71753;SDS011;59593;51.716;7.016;2023-04-25T15:45:18;4.43;;;1.50;;
71753;SDS011;59593;51.716;7.016;2023-04-25T15:47:48;5.03;;;1.73;;
71753;SDS011;59593;51.716;7.016;2023-04-25T15:50:15;4.87;;;1.60;;
71753;SDS011;59593;51.716;7.016;2023-04-25T15:52:41;6.13;;;1.60;;
71753;SDS011;59593;51.716;7.016;2023-04-25T15:55:07;4.90;;;1.53;;
71753;SDS011;59593;51.716;7.016;2023-04-25T15:57:33;6.50;;;1.73;;
71753;SDS011;59593;51.716;7.016;2023-04-25T16:00:00;4.00;;;1.30;;
71753;SDS011;59593;51.716;7.016;2023-04-25T16:02:29;3.60;;;1.60;;
71753;SDS011;59593;51.716;7.016;2023-04-25T16:04:55;4.50;;;1.60;;
71753;SDS011;59593;51.716;7.016;2023-04-25T16:07:20;6.20;;;1.60;;
71753;SDS011;59593;51.716;7.016;2023-04-25T16:09:47;4.87;;;1.50;;
71753;SDS011;59593;51.716;7.016;2023-04-25T16:12:13;4.13;;;1.60;;
71753;SDS011;59593;51.716;7.016;2023-04-25T16:14:40;7.07;;;1.50;;
71753;SDS011;59593;51.716;7.016;2023-04-25T16:17:05;5.43;;;1.50;;
71753;SDS011;59593;51.716;7.016;2023-04-25T16:19:31;5.00;;;1.50;;
71753;SDS011;59593;51.716;7.016;2023-04-25T16:21:57;4.20;;;1.50;;
71753;SDS011;59593;51.716;7.016;2023-04-25T16:24:22;4.43;;;1.70;;
71753;SDS011;59593;51.716;7.016;2023-04-25T16:26:48;4.80;;;1.87;;
71753;SDS011;59593;51.716;7.016;2023-04-25T16:29:13;4.73;;;1.67;;
71753;SDS011;59593;51.716;7.016;2023-04-25T16:31:41;3.47;;;1.20;;
71753;SDS011;59593;51.716;7.016;2023-04-25T16:34:07;4.07;;;1.40;;
71753;SDS011;59593;51.716;7.016;2023-04-25T16:36:33;6.70;;;1.50;;
71753;SDS011;59593;51.716;7.016;2023-04-25T16:38:58;6.50;;;1.53;;
71753;SDS011;59593;51.716;7.016;2023-04-25T16:41:27;5.43;;;1.40;;
71753;SDS011;59593;51.716;7.016;2023-04-25T16:43:53;5.63;;;1.70;;
71753;SDS011;59593;51.716;7.016;2023-04-25T16:46:19;5.77;;;1.40;;
71753;SDS011;59593;51.716;7.016;2023-04-25T16:48:45;5.60;;;1.70;;
71753;SDS011;59593;51.716;7.016;2023-04-25T16:51:12;3.93;;;1.40;;
71753;SDS011;59593;51.716;7.016;2023-04-25T16:53:38;5.77;;;1.40;;
71753;SDS011;59593;51.716;7.016;2023-04-25T16:56:04;4.80;;;1.40;;
71753;SDS011;59593;51.716;7.016;2023-04-25T16:58:31;2.57;;;1.27;;
71753;SDS011;59593;51.716;7.016;2023-04-25T17:00:57;5.23;;;1.30;;
71753;SDS011;59593;51.716;7.016;2023-04-25T17:03:22;4.23;;;1.30;;
71753;SDS011;59593;51.716;7.016;2023-04-25T17:05:52;3.87;;;1.23;;
71753;SDS011;59593;51.716;7.016;2023-04-25T17:08:21;5.33;;;1.60;;
71753;SDS011;59593;51.716;7.016;2023-04-25T17:10:50;3.53;;;1.40;;
71753;SDS011;59593;51.716;7.016;2023-04-25T17:13:15;4.67;;;1.33;;
71753;SDS011;59593;51.716;7.016;2023-04-25T17:15:41;5.67;;;1.47;;
71753;SDS011;59593;51.716;7.016;2023-04-25T17:18:07;5.97;;;1.70;;
71753;SDS011;59593;51.716;7.016;2023-04-25T17:20:32;6.30;;;1.83;;
71753;SDS011;59593;51.716;7.016;2023-04-25T17:22:59;4.90;;;1.60;;
71753;SDS011;59593;51.716;7.016;2023-04-25T17:25:25;4.43;;;1.30;;
71753;SDS011;59593;51.716;7.016;2023-04-25T17:27:50;5.20;;;1.37;;
71753;SDS011;59593;51.716;7.016;2023-04-25T17:30:17;5.07;;;1.30;;
71753;SDS011;59593;51.716;7.016;2023-04-25T17:32:42;4.60;;;1.70;;
71753;SDS011;59593;51.716;7.016;2023-04-25T17:35:08;4.87;;;1.63;;
71753;SDS011;59593;51.716;7.016;2023-04-25T17:37:34;9.00;;;1.87;;
71753;SDS011;59593;51.716;7.016;2023-04-25T17:39:59;5.33;;;1.43;;
71753;SDS011;59593;51.716;7.016;2023-04-25T17:42:25;8.00;;;1.77;;
71753;SDS011;59593;51.716;7.016;2023-04-25T17:44:52;5.53;;;1.90;;
71753;SDS011;59593;51.716;7.016;2023-04-25T17:47:19;7.33;;;1.93;;
71753;SDS011;59593;51.716;7.016;2023-04-25T17:49:45;6.70;;;2.50;;
71753;SDS011;59593;51.716;7.016;2023-04-25T17:52:10;7.67;;;2.20;;
71753;SDS011;59593;51.716;7.016;2023-04-25T17:54:36;6.07;;;2.10;;
71753;SDS011;59593;51.716;7.016;2023-04-25T17:57:02;9.27;;;2.10;;
71753;SDS011;59593;51.716;7.016;2023-04-25T17:59:31;3.47;;;1.40;;
71753;SDS011;59593;51.716;7.016;2023-04-25T18:01:56;5.63;;;1.50;;
71753;SDS011;59593;51.716;7.016;2023-04-25T18:04:23;6.20;;;1.40;;
71753;SDS011;59593;51.716;7.016;2023-04-25T18:06:49;6.87;;;1.67;;
71753;SDS011;59593;51.716;7.016;2023-04-25T18:09:15;5.50;;;1.87;;
71753;SDS011;59593;51.716;7.016;2023-04-25T18:11:43;5.97;;;1.60;;
71753;SDS011;59593;51.716;7.016;2023-04-25T18:14:13;8.20;;;1.80;;
71753;SDS011;59593;51.716;7.016;2023-04-25T18:16:40;5.37;;;1.70;;
71753;SDS011;59593;51.716;7.016;2023-04-25T18:19:07;4.23;;;1.40;;
71753;SDS011;59593;51.716;7.016;2023-04-25T18:21:37;5.37;;;1.50;;
71753;SDS011;59593;51.716;7.016;2023-04-25T18:24:03;6.03;;;1.63;;
71753;SDS011;59593;51.716;7.016;2023-04-25T18:26:29;4.03;;;1.50;;
71753;SDS011;59593;51.716;7.016;2023-04-25T18:28:55;5.17;;;1.73;;
71753;SDS011;59593;51.716;7.016;2023-04-25T18:31:21;3.53;;;1.53;;
71753;SDS011;59593;51.716;7.016;2023-04-25T18:33:49;5.83;;;1.43;;
71753;SDS011;59593;51.716;7.016;2023-04-25T18:36:15;5.13;;;1.57;;
71753;SDS011;59593;51.716;7.016;2023-04-25T18:38:40;4.27;;;1.50;;
71753;SDS011;59593;51.716;7.016;2023-04-25T18:41:06;6.87;;;1.73;;
71753;SDS011;59593;51.716;7.016;2023-04-25T18:43:31;6.80;;;2.20;;
71753;SDS011;59593;51.716;7.016;2023-04-25T18:45:57;3.83;;;1.77;;
71753;SDS011;59593;51.716;7.016;2023-04-25T18:48:23;4.67;;;1.90;;
71753;SDS011;59593;51.716;7.016;2023-04-25T18:50:48;7.30;;;1.97;;
71753;SDS011;59593;51.716;7.016;2023-04-25T18:53:15;5.90;;;1.57;;
71753;SDS011;59593;51.716;7.016;2023-04-25T18:55:41;4.60;;;1.90;;
71753;SDS011;59593;51.716;7.016;2023-04-25T18:58:07;5.63;;;1.83;;
71753;SDS011;59593;51.716;7.016;2023-04-25T19:00:33;6.83;;;1.90;;
71753;SDS011;59593;51.716;7.016;2023-04-25T19:02:59;7.53;;;1.83;;
71753;SDS011;59593;51.716;7.016;2023-04-25T19:05:28;6.43;;;1.77;;
71753;SDS011;59593;51.716;7.016;2023-04-25T19:07:55;4.70;;;1.80;;
71753;SDS011;59593;51.716;7.016;2023-04-25T19:10:21;6.90;;;2.00;;
71753;SDS011;59593;51.716;7.016;2023-04-25T19:12:47;7.33;;;2.00;;
71753;SDS011;59593;51.716;7.016;2023-04-25T19:15:13;9.53;;;2.10;;
71753;SDS011;59593;51.716;7.016;2023-04-25T19:17:39;5.03;;;1.83;;
71753;SDS011;59593;51.716;7.016;2023-04-25T19:20:06;7.93;;;2.10;;
71753;SDS011;59593;51.716;7.016;2023-04-25T19:22:32;6.43;;;1.90;;
71753;SDS011;59593;51.716;7.016;2023-04-25T19:24:58;8.83;;;2.77;;
71753;SDS011;59593;51.716;7.016;2023-04-25T19:27:23;6.67;;;2.37;;
71753;SDS011;59593;51.716;7.016;2023-04-25T19:29:49;4.87;;;1.70;;
71753;SDS011;59593;51.716;7.016;2023-04-25T19:32:21;5.93;;;2.27;;
71753;SDS011;59593;51.716;7.016;2023-04-25T19:34:50;7.63;;;2.20;;
71753;SDS011;59593;51.716;7.016;2023-04-25T19:37:16;8.53;;;2.27;;
71753;SDS011;59593;51.716;7.016;2023-04-25T19:39:42;7.80;;;2.30;;
71753;SDS011;59593;51.716;7.016;2023-04-25T19:42:07;12.10;;;2.57;;
71753;SDS011;59593;51.716;7.016;2023-04-25T19:44:33;9.37;;;2.20;;
71753;SDS011;59593;51.716;7.016;2023-04-25T19:47:00;7.40;;;2.10;;
71753;SDS011;59593;51.716;7.016;2023-04-25T19:49:26;6.90;;;2.07;;
71753;SDS011;59593;51.716;7.016;2023-04-25T19:51:52;7.73;;;2.20;;
71753;SDS011;59593;51.716;7.016;2023-04-25T19:54:17;7.93;;;2.30;;
71753;SDS011;59593;51.716;7.016;2023-04-25T19:56:43;7.23;;;2.30;;
71753;SDS011;59593;51.716;7.016;2023-04-25T19:59:09;5.47;;;2.10;;
71753;SDS011;59593;51.716;7.016;2023-04-25T20:01:35;9.10;;;2.40;;
71753;SDS011;59593;51.716;7.016;2023-04-25T20:04:01;7.87;;;2.17;;
71753;SDS011;59593;51.716;7.016;2023-04-25T20:06:27;7.37;;;1.97;;
71753;SDS011;59593;51.716;7.016;2023-04-25T20:08:53;8.93;;;2.30;;
71753;SDS011;59593;51.716;7.016;2023-04-25T20:11:19;6.00;;;1.87;;
71753;SDS011;59593;51.716;7.016;2023-04-25T20:13:45;11.17;;;2.20;;
71753;SDS011;59593;51.716;7.016;2023-04-25T20:16:11;8.20;;;2.13;;
71753;SDS011;59593;51.716;7.016;2023-04-25T20:18:43;9.13;;;2.30;;
71753;SDS011;59593;51.716;7.016;2023-04-25T20:21:10;6.00;;;1.70;;
71753;SDS011;59593;51.716;7.016;2023-04-25T20:23:35;8.00;;;2.20;;
71753;SDS011;59593;51.716;7.016;2023-04-25T20:26:01;7.30;;;2.33;;
71753;SDS011;59593;51.716;7.016;2023-04-25T20:28:27;7.17;;;2.17;;
71753;SDS011;59593;51.716;7.016;2023-04-25T20:30:52;9.53;;;2.07;;
71753;SDS011;59593;51.716;7.016;2023-04-25T20:33:18;5.47;;;2.00;;
71753;SDS011;59593;51.716;7.016;2023-04-25T20:35:45;10.07;;;2.17;;
71753;SDS011;59593;51.716;7.016;2023-04-25T20:38:12;5.77;;;2.20;;
71753;SDS011;59593;51.716;7.016;2023-04-25T20:40:38;6.73;;;2.30;;
71753;SDS011;59593;51.716;7.016;2023-04-25T20:43:03;7.70;;;2.10;;
71753;SDS011;59593;51.716;7.016;2023-04-25T20:45:29;5.77;;;2.23;;
71753;SDS011;59593;51.716;7.016;2023-04-25T20:47:57;6.73;;;2.60;;
71753;SDS011;59593;51.716;7.016;2023-04-25T20:50:24;8.30;;;2.40;;
71753;SDS011;59593;51.716;7.016;2023-04-25T20:52:50;7.63;;;2.37;;
71753;SDS011;59593;51.716;7.016;2023-04-25T20:55:16;6.03;;;2.30;;
71753;SDS011;59593;51.716;7.016;2023-04-25T20:57:41;8.40;;;2.50;;
71753;SDS011;59593;51.716;7.016;2023-04-25T21:00:07;7.37;;;2.57;;
71753;SDS011;59593;51.716;7.016;2023-04-25T21:02:45;8.27;;;2.27;;